Terminal Aerodrome Forecast
Issued by NWS

Home | Current Version | Previous Version | Text Only | Print | Product List | Glossary On
Versions: 1 2 3 4 5 6 7 8 9 10 11 12 13
000
FTUS45 KRIW 242300
TAFCOD
TAF
KCOD 242322Z 2500/2524 04012KT P6SM SCT060 BKN120
     FM250400 01008KT P6SM VCSH SCT030 OVC060
     FM250900 36015G23KT 2SM -SN OVC015
      AMD LTD TO CLD VIS AND WIND=

USA.gov is the U.S. government's official web portal to all federal, state and local government web resources and services.